Time,TemperatureF,DewpointF,PressureIn,WindDirection,WindDirectionDegrees,WindSpeedMPH,WindSpeedGustMPH,Humidity,HourlyPrecipIn,Conditions,Clouds,dailyrainin,SoftwareType,DateUTC
2013-03-05 00:03:00,66.6,57.3,30.13,NE,56,5.0,6.0,72,0.00,,,0.00,VWS V14.01,2013-03-05 10:03:00,
2013-03-05 00:08:00,66.4,57.5,30.13,NE,50,9.0,9.0,73,0.00,,,0.00,VWS V14.01,2013-03-05 10:08:00,
2013-03-05 00:13:00,66.5,57.6,30.13,East,92,7.0,11.0,73,0.00,,,0.00,VWS V14.01,2013-03-05 10:13:00,
2013-03-05 00:18:00,66.5,56.8,30.13,NE,37,10.0,10.0,71,0.00,,,0.00,VWS V14.01,2013-03-05 10:18:00,
2013-03-05 00:23:00,66.4,56.7,30.13,NE,53,4.0,6.0,71,0.00,,,0.00,VWS V14.01,2013-03-05 10:23:00,
2013-03-05 00:29:00,66.2,56.9,30.13,North,9,4.0,5.0,72,0.00,,,0.00,VWS V14.01,2013-03-05 10:29:00,
2013-03-05 00:34:00,66.3,57.0,30.13,NE,52,7.0,8.0,72,0.00,,,0.00,VWS V14.01,2013-03-05 10:34:00,
2013-03-05 00:39:00,66.2,56.1,30.13,NE,56,5.0,6.0,70,0.00,,,0.00,VWS V14.01,2013-03-05 10:39:00,
2013-03-05 00:44:00,66.0,56.0,30.13,ENE,65,6.0,9.0,70,0.00,,,0.00,VWS V14.01,2013-03-05 10:44:00,
2013-03-05 00:49:00,66.1,55.7,30.13,ENE,57,6.0,8.0,69,0.00,,,0.00,VWS V14.01,2013-03-05 10:49:00,
2013-03-05 00:54:00,66.2,55.7,30.13,North,354,5.0,8.0,69,0.00,,,0.00,VWS V14.01,2013-03-05 10:54:00,
2013-03-05 00:59:00,66.1,55.7,30.13,NE,36,4.0,4.0,69,0.00,,,0.00,VWS V14.01,2013-03-05 10:59:00,
2013-03-05 01:04:00,65.9,55.5,30.12,NNE,28,4.0,5.0,69,0.00,,,0.00,VWS V14.01,2013-03-05 11:04:00,
2013-03-05 01:09:00,66.0,55.5,30.12,NNE,33,5.0,5.0,69,0.00,,,0.00,VWS V14.01,2013-03-05 11:09:00,
2013-03-05 01:14:00,66.2,56.1,30.12,ENE,58,4.0,5.0,70,0.00,,,0.00,VWS V14.01,2013-03-05 11:14:00,
2013-03-05 01:19:00,66.3,56.6,30.12,ENE,68,7.0,7.0,71,0.00,,,0.00,VWS V14.01,2013-03-05 11:19:00,
2013-03-05 01:24:00,66.3,57.0,30.12,East,91,3.0,5.0,72,0.00,,,0.00,VWS V14.01,2013-03-05 11:24:00,
2013-03-05 01:29:00,66.2,56.9,30.12,NE,55,4.0,5.0,72,0.00,,,0.00,VWS V14.01,2013-03-05 11:29:00,
2013-03-05 01:34:00,66.2,57.3,30.12,NE,39,5.0,5.0,73,0.00,,,0.00,VWS V14.01,2013-03-05 11:34:00,
2013-03-05 01:40:00,66.1,57.2,30.11,East,90,2.0,3.0,73,0.00,,,0.00,VWS V14.01,2013-03-05 11:40:00,
2013-03-05 01:45:00,65.9,57.0,30.11,NE,47,8.0,8.0,73,0.00,,,0.00,VWS V14.01,2013-03-05 11:45:00,
2013-03-05 01:50:00,65.8,56.9,30.11,NE,50,3.0,4.0,73,0.00,,,0.00,VWS V14.01,2013-03-05 11:50:00,
2013-03-05 01:55:00,65.7,56.8,30.11,NE,54,3.0,4.0,73,0.00,,,0.00,VWS V14.01,2013-03-05 11:55:00,
2013-03-05 02:00:00,65.7,57.2,30.11,North,352,8.0,10.0,74,0.00,,,0.00,VWS V14.01,2013-03-05 12:00:00,
2013-03-05 02:05:00,65.7,57.2,30.10,NE,40,4.0,7.0,74,0.00,,,0.00,VWS V14.01,2013-03-05 12:05:00,
2013-03-05 02:10:00,65.9,57.4,30.10,NE,49,4.0,5.0,74,0.00,,,0.00,VWS V14.01,2013-03-05 12:10:00,
2013-03-05 02:15:00,65.8,57.3,30.11,NNE,21,4.0,4.0,74,0.00,,,0.00,VWS V14.01,2013-03-05 12:15:00,
2013-03-05 02:20:00,65.8,57.7,30.11,NE,45,5.0,6.0,75,0.00,,,0.00,VWS V14.01,2013-03-05 12:20:00,
2013-03-05 02:25:00,65.9,57.8,30.10,NE,52,4.0,7.0,75,0.00,,,0.00,VWS V14.01,2013-03-05 12:25:00,
2013-03-05 02:30:00,66.0,58.2,30.10,NE,38,4.0,4.0,76,0.00,,,0.00,VWS V14.01,2013-03-05 12:30:00,
2013-03-05 02:35:00,66.1,58.3,30.10,ENE,62,5.0,7.0,76,0.00,,,0.00,VWS V14.01,2013-03-05 12:35:00,
2013-03-05 02:40:00,66.1,58.3,30.10,NE,54,5.0,7.0,76,0.00,,,0.00,VWS V14.01,2013-03-05 12:40:00,
2013-03-05 02:46:00,65.9,58.5,30.10,ENE,59,3.0,3.0,77,0.00,,,0.00,VWS V14.01,2013-03-05 12:46:00,
2013-03-05 02:51:00,65.7,58.7,30.10,NE,39,6.0,6.0,78,0.00,,,0.00,VWS V14.01,2013-03-05 12:51:00,
2013-03-05 02:56:00,65.6,58.6,30.10,NNE,21,5.0,7.0,78,0.00,,,0.00,VWS V14.01,2013-03-05 12:56:00,
2013-03-05 03:01:00,65.6,58.9,30.10,NE,42,4.0,4.0,79,0.00,,,0.00,VWS V14.01,2013-03-05 13:01:00,
2013-03-05 03:06:00,65.6,58.9,30.10,NNE,24,6.0,6.0,79,0.00,,,0.00,VWS V14.01,2013-03-05 13:06:00,
2013-03-05 03:11:00,65.6,58.9,30.10,NE,40,9.0,9.0,79,0.00,,,0.00,VWS V14.01,2013-03-05 13:11:00,
2013-03-05 03:16:00,65.6,58.9,30.09,NE,55,9.0,10.0,79,0.00,,,0.00,VWS V14.01,2013-03-05 13:16:00,
2013-03-05 03:21:00,65.6,58.9,30.09,NNE,26,9.0,9.0,79,0.00,,,0.00,VWS V14.01,2013-03-05 13:21:00,
2013-03-05 03:26:00,65.6,58.9,30.09,NE,39,7.0,7.0,79,0.00,,,0.00,VWS V14.01,2013-03-05 13:26:00,
2013-03-05 03:31:00,65.5,58.8,30.09,NNE,17,4.0,5.0,79,0.00,,,0.00,VWS V14.01,2013-03-05 13:31:00,
2013-03-05 03:36:00,65.6,58.6,30.09,NNE,31,8.0,8.0,78,0.00,,,0.00,VWS V14.01,2013-03-05 13:36:00,
2013-03-05 03:41:00,65.7,59.0,30.09,NNE,31,6.0,8.0,79,0.00,,,0.00,VWS V14.01,2013-03-05 13:41:00,
2013-03-05 03:46:00,65.8,58.8,30.09,NE,34,5.0,6.0,78,0.00,,,0.00,VWS V14.01,2013-03-05 13:46:00,
2013-03-05 03:52:00,65.8,59.1,30.09,NNE,26,7.0,7.0,79,0.00,,,0.00,VWS V14.01,2013-03-05 13:52:00,
2013-03-05 03:57:00,65.9,58.9,30.08,NE,44,7.0,13.0,78,0.00,,,0.00,VWS V14.01,2013-03-05 13:57:00,
2013-03-05 04:02:00,65.9,59.2,30.09,NE,36,7.0,8.0,79,0.00,,,0.00,VWS V14.01,2013-03-05 14:02:00,
2013-03-05 04:07:00,65.8,58.8,30.09,NE,50,5.0,5.0,78,0.00,,,0.00,VWS V14.01,2013-03-05 14:07:00,
2013-03-05 04:12:00,65.8,59.1,30.09,ENE,57,6.0,6.0,79,0.00,,,0.00,VWS V14.01,2013-03-05 14:12:00,
2013-03-05 04:17:00,65.8,59.1,30.09,ENE,78,6.0,6.0,79,0.00,,,0.00,VWS V14.01,2013-03-05 14:17:00,
2013-03-05 04:22:00,65.6,58.9,30.09,NE,42,4.0,4.0,79,0.00,,,0.00,VWS V14.01,2013-03-05 14:22:00,
2013-03-05 04:27:00,65.6,58.9,30.09,NNE,31,6.0,6.0,79,0.00,,,0.00,VWS V14.01,2013-03-05 14:27:00,
2013-03-05 04:32:00,65.6,59.3,30.09,ENE,59,6.0,6.0,80,0.00,,,0.00,VWS V14.01,2013-03-05 14:32:00,
2013-03-05 04:37:00,65.5,59.2,30.09,NNE,28,5.0,6.0,80,0.00,,,0.00,VWS V14.01,2013-03-05 14:37:00,
2013-03-05 04:42:00,65.4,59.1,30.09,NNE,33,6.0,6.0,80,0.00,,,0.00,VWS V14.01,2013-03-05 14:42:00,
2013-03-05 04:48:00,65.5,59.2,30.09,NE,34,6.0,7.0,80,0.00,,,0.00,VWS V14.01,2013-03-05 14:48:00,
2013-03-05 04:53:00,65.5,59.2,30.09,NNE,16,6.0,7.0,80,0.00,,,0.00,VWS V14.01,2013-03-05 14:53:00,
2013-03-05 04:58:00,65.6,59.3,30.09,ENE,71,5.0,5.0,80,0.00,,,0.00,VWS V14.01,2013-03-05 14:58:00,
2013-03-05 05:03:00,65.8,59.1,30.09,ENE,57,3.0,3.0,79,0.00,,,0.00,VWS V14.01,2013-03-05 15:03:00,
2013-03-05 05:08:00,65.7,59.4,30.09,NNE,28,9.0,9.0,80,0.00,,,0.00,VWS V14.01,2013-03-05 15:08:00,
2013-03-05 05:13:00,65.7,59.4,30.10,East,96,4.0,6.0,80,0.00,,,0.00,VWS V14.01,2013-03-05 15:13:00,
2013-03-05 05:18:00,65.6,58.9,30.10,NE,48,5.0,6.0,79,0.00,,,0.00,VWS V14.01,2013-03-05 15:18:00,
2013-03-05 05:23:00,65.7,58.7,30.10,ENE,70,7.0,10.0,78,0.00,,,0.00,VWS V14.01,2013-03-05 15:23:00,
2013-03-05 05:28:00,65.9,58.9,30.10,ESE,103,9.0,10.0,78,0.00,,,0.00,VWS V14.01,2013-03-05 15:28:00,
2013-03-05 05:34:00,66.0,59.0,30.10,East,82,5.0,5.0,78,0.00,,,0.00,VWS V14.01,2013-03-05 15:34:00,
2013-03-05 05:39:00,66.0,59.0,30.09,NNE,33,2.0,2.0,78,0.00,,,0.00,VWS V14.01,2013-03-05 15:39:00,
2013-03-05 05:44:00,65.9,58.9,30.09,NE,45,5.0,5.0,78,0.00,,,0.00,VWS V14.01,2013-03-05 15:44:00,
2013-03-05 05:49:00,65.8,59.1,30.10,NE,42,5.0,6.0,79,0.00,,,0.00,VWS V14.01,2013-03-05 15:49:00,
2013-03-05 05:54:00,65.7,59.0,30.10,NNE,17,6.0,6.0,79,0.00,,,0.00,VWS V14.01,2013-03-05 15:54:00,
2013-03-05 05:59:00,65.8,58.8,30.10,NE,39,3.0,3.0,78,0.00,,,0.00,VWS V14.01,2013-03-05 15:59:00,
2013-03-05 06:04:00,65.9,58.9,30.10,NE,39,5.0,6.0,78,0.00,,,0.00,VWS V14.01,2013-03-05 16:04:00,
2013-03-05 06:09:00,65.9,58.9,30.10,NE,52,6.0,8.0,78,0.00,,,0.00,VWS V14.01,2013-03-05 16:09:00,
2013-03-05 06:14:00,65.9,58.5,30.10,North,358,5.0,6.0,77,0.00,,,0.00,VWS V14.01,2013-03-05 16:14:00,
2013-03-05 06:19:00,65.9,58.9,30.10,NE,48,5.0,5.0,78,0.00,,,0.00,VWS V14.01,2013-03-05 16:19:00,
2013-03-05 06:25:00,65.8,58.8,30.10,NNE,27,7.0,8.0,78,0.00,,,0.00,VWS V14.01,2013-03-05 16:25:00,
2013-03-05 06:30:00,65.8,58.8,30.11,NE,34,5.0,6.0,78,0.00,,,0.00,VWS V14.01,2013-03-05 16:30:00,
2013-03-05 06:35:00,65.8,58.4,30.11,NNE,31,6.0,7.0,77,0.00,,,0.00,VWS V14.01,2013-03-05 16:35:00,
2013-03-05 06:40:00,65.9,58.5,30.11,NE,40,6.0,6.0,77,0.00,,,0.00,VWS V14.01,2013-03-05 16:40:00,
2013-03-05 06:45:00,65.9,58.5,30.11,NNE,19,9.0,9.0,77,0.00,,,0.00,VWS V14.01,2013-03-05 16:45:00,
2013-03-05 06:50:00,65.9,58.1,30.11,NNE,32,3.0,5.0,76,0.00,,,0.00,VWS V14.01,2013-03-05 16:50:00,
2013-03-05 06:55:00,65.9,58.1,30.11,NE,49,6.0,6.0,76,0.00,,,0.00,VWS V14.01,2013-03-05 16:55:00,
2013-03-05 07:00:00,65.9,57.8,30.11,NNE,18,11.0,11.0,75,0.00,,,0.00,VWS V14.01,2013-03-05 17:00:00,
2013-03-05 07:05:00,66.2,58.0,30.12,NE,35,6.0,9.0,75,0.00,,,0.00,VWS V14.01,2013-03-05 17:05:00,
2013-03-05 07:10:00,66.4,57.9,30.12,North,9,8.0,8.0,74,0.00,,,0.00,VWS V14.01,2013-03-05 17:10:00,
2013-03-05 07:15:00,66.8,57.9,30.12,NNE,17,7.0,7.0,73,0.00,,,0.00,VWS V14.01,2013-03-05 17:15:00,
2013-03-05 07:20:00,66.9,58.0,30.12,ENE,63,4.0,5.0,73,0.00,,,0.00,VWS V14.01,2013-03-05 17:20:00,
2013-03-05 07:26:00,67.2,58.3,30.13,NE,38,8.0,8.0,73,0.00,,,0.00,VWS V14.01,2013-03-05 17:26:00,
2013-03-05 07:31:00,67.5,58.2,30.13,ENE,68,7.0,7.0,72,0.00,,,0.00,VWS V14.01,2013-03-05 17:31:00,
2013-03-05 07:36:00,67.7,58.0,30.13,NE,42,4.0,5.0,71,0.00,,,0.00,VWS V14.01,2013-03-05 17:36:00,
2013-03-05 07:41:00,67.8,57.3,30.13,NE,47,5.0,6.0,69,0.00,,,0.00,VWS V14.01,2013-03-05 17:41:00,
2013-03-05 07:46:00,68.1,57.6,30.13,ENE,59,4.0,4.0,69,0.00,,,0.00,VWS V14.01,2013-03-05 17:46:00,
2013-03-05 07:51:00,67.9,57.8,30.13,NE,51,7.0,7.0,70,0.00,,,0.00,VWS V14.01,2013-03-05 17:51:00,
2013-03-05 07:56:00,68.0,57.9,30.14,ENE,60,6.0,8.0,70,0.00,,,0.00,VWS V14.01,2013-03-05 17:56:00,
2013-03-05 08:01:00,68.3,58.2,30.14,NE,45,4.0,4.0,70,0.00,,,0.00,VWS V14.01,2013-03-05 18:01:00,
2013-03-05 08:06:00,68.6,58.4,30.13,NNE,26,9.0,9.0,70,0.00,,,0.00,VWS V14.01,2013-03-05 18:06:00,
2013-03-05 08:11:00,68.8,58.2,30.13,East,87,4.0,4.0,69,0.00,,,0.00,VWS V14.01,2013-03-05 18:11:00,
2013-03-05 08:16:00,68.9,57.5,30.14,ENE,57,5.0,6.0,67,0.00,,,0.00,VWS V14.01,2013-03-05 18:16:00,
2013-03-05 08:21:00,69.0,58.0,30.14,East,87,7.0,9.0,68,0.00,,,0.00,VWS V14.01,2013-03-05 18:21:00,
2013-03-05 08:26:00,69.0,57.2,30.14,NE,38,6.0,6.0,66,0.00,,,0.00,VWS V14.01,2013-03-05 18:26:00,
2013-03-05 08:32:00,69.2,57.4,30.14,ENE,77,6.0,7.0,66,0.00,,,0.00,VWS V14.01,2013-03-05 18:32:00,
2013-03-05 08:37:00,69.4,58.4,30.14,ENE,73,9.0,9.0,68,0.00,,,0.00,VWS V14.01,2013-03-05 18:37:00,
2013-03-05 08:42:00,69.9,58.0,30.14,East,94,9.0,10.0,66,0.00,,,0.00,VWS V14.01,2013-03-05 18:42:00,
2013-03-05 08:47:00,69.8,58.4,30.14,ENE,66,9.0,10.0,67,0.00,,,0.00,VWS V14.01,2013-03-05 18:47:00,
2013-03-05 08:52:00,69.9,58.5,30.14,East,80,11.0,13.0,67,0.00,,,0.00,VWS V14.01,2013-03-05 18:52:00,
2013-03-05 08:57:00,69.9,58.0,30.14,East,87,9.0,14.0,66,0.00,,,0.00,VWS V14.01,2013-03-05 18:57:00,
2013-03-05 09:02:00,69.9,57.6,30.14,East,79,6.0,9.0,65,0.00,,,0.00,VWS V14.01,2013-03-05 19:02:00,
2013-03-05 09:07:00,70.2,57.9,30.14,ENE,77,8.0,11.0,65,0.00,,,0.00,VWS V14.01,2013-03-05 19:07:00,
2013-03-05 09:12:00,70.1,56.9,30.14,East,83,7.0,7.0,63,0.00,,,0.00,VWS V14.01,2013-03-05 19:12:00,
2013-03-05 09:17:00,70.2,56.6,30.14,ENE,67,13.0,14.0,62,0.00,,,0.00,VWS V14.01,2013-03-05 19:17:00,
2013-03-05 09:22:00,70.1,57.4,30.14,ENE,57,9.0,12.0,64,0.00,,,0.00,VWS V14.01,2013-03-05 19:22:00,
2013-03-05 09:27:00,70.0,57.7,30.13,East,92,10.0,10.0,65,0.00,,,0.00,VWS V14.01,2013-03-05 19:27:00,
2013-03-05 09:32:00,70.2,57.5,30.14,NE,52,7.0,10.0,64,0.00,,,0.00,VWS V14.01,2013-03-05 19:32:00,
2013-03-05 09:38:00,70.3,58.0,30.14,East,86,11.0,15.0,65,0.00,,,0.00,VWS V14.01,2013-03-05 19:38:00,
2013-03-05 09:43:00,70.5,58.2,30.13,NE,51,12.0,12.0,65,0.00,,,0.00,VWS V14.01,2013-03-05 19:43:00,
2013-03-05 09:48:00,70.5,56.4,30.13,ENE,69,8.0,10.0,61,0.00,,,0.00,VWS V14.01,2013-03-05 19:48:00,
2013-03-05 09:53:00,71.1,57.0,30.14,East,99,11.0,11.0,61,0.00,,,0.00,VWS V14.01,2013-03-05 19:53:00,
2013-03-05 09:58:00,70.9,55.4,30.13,East,85,9.0,9.0,58,0.00,,,0.00,VWS V14.01,2013-03-05 19:58:00,
2013-03-05 10:03:00,70.7,56.6,30.13,ENE,77,11.0,13.0,61,0.00,,,0.00,VWS V14.01,2013-03-05 20:03:00,
2013-03-05 10:08:00,70.9,56.8,30.13,ENE,61,10.0,12.0,61,0.00,,,0.00,VWS V14.01,2013-03-05 20:08:00,
2013-03-05 10:13:00,71.3,57.6,30.13,East,98,10.0,10.0,62,0.00,,,0.00,VWS V14.01,2013-03-05 20:13:00,
2013-03-05 10:18:00,71.7,56.2,30.13,ESE,110,13.0,13.0,58,0.00,,,0.00,VWS V14.01,2013-03-05 20:18:00,
2013-03-05 10:23:00,71.7,57.5,30.12,NE,42,7.0,8.0,61,0.00,,,0.00,VWS V14.01,2013-03-05 20:23:00,
2013-03-05 10:28:00,71.8,55.8,30.12,East,92,9.0,14.0,57,0.00,,,0.00,VWS V14.01,2013-03-05 20:28:00,
2013-03-05 10:33:00,71.4,56.3,30.12,NE,41,17.0,17.0,59,0.00,,,0.00,VWS V14.01,2013-03-05 20:33:00,
2013-03-05 10:38:00,71.6,56.5,30.12,ESE,111,11.0,11.0,59,0.00,,,0.00,VWS V14.01,2013-03-05 20:38:00,
2013-03-05 10:43:00,71.3,55.8,30.12,ENE,71,16.0,16.0,58,0.00,,,0.00,VWS V14.01,2013-03-05 20:43:00,
2013-03-05 10:48:00,71.3,56.2,30.12,East,101,17.0,17.0,59,0.00,,,0.00,VWS V14.01,2013-03-05 20:48:00,
2013-03-05 10:53:00,71.3,56.2,30.12,East,99,11.0,11.0,59,0.00,,,0.00,VWS V14.01,2013-03-05 20:53:00,
2013-03-05 10:58:00,71.5,57.4,30.12,ENE,67,14.0,16.0,61,0.00,,,0.00,VWS V14.01,2013-03-05 20:58:00,
2013-03-05 11:04:00,71.5,56.9,30.11,ENE,63,9.0,12.0,60,0.00,,,0.00,VWS V14.01,2013-03-05 21:04:00,
2013-03-05 11:09:00,71.7,58.0,30.11,East,86,10.0,10.0,62,0.00,,,0.00,VWS V14.01,2013-03-05 21:09:00,
2013-03-05 11:14:00,71.2,57.5,30.11,ENE,76,9.0,12.0,62,0.00,,,0.00,VWS V14.01,2013-03-05 21:14:00,
2013-03-05 11:19:00,70.9,57.2,30.11,ENE,59,13.0,13.0,62,0.00,,,0.00,VWS V14.01,2013-03-05 21:19:00,
2013-03-05 11:24:00,70.2,57.5,30.11,ESE,102,11.0,11.0,64,0.00,,,0.00,VWS V14.01,2013-03-05 21:24:00,
2013-03-05 11:29:00,70.3,57.6,30.11,East,85,21.0,21.0,64,0.00,,,0.00,VWS V14.01,2013-03-05 21:29:00,
2013-03-05 11:34:00,70.7,57.9,30.10,East,99,9.0,12.0,64,0.00,,,0.00,VWS V14.01,2013-03-05 21:34:00,
2013-03-05 11:39:00,71.1,58.3,30.10,ESE,105,13.0,13.0,64,0.00,,,0.00,VWS V14.01,2013-03-05 21:39:00,
2013-03-05 11:44:00,71.3,57.6,30.10,ESE,103,17.0,17.0,62,0.00,,,0.00,VWS V14.01,2013-03-05 21:44:00,
2013-03-05 11:49:00,71.7,57.5,30.10,ENE,73,10.0,13.0,61,0.00,,,0.00,VWS V14.01,2013-03-05 21:49:00,
2013-03-05 11:55:00,72.1,57.9,30.09,ENE,73,12.0,17.0,61,0.00,,,0.00,VWS V14.01,2013-03-05 21:55:00,
2013-03-05 12:00:00,72.5,58.8,30.09,ESE,108,16.0,20.0,62,0.00,,,0.00,VWS V14.01,2013-03-05 22:00:00,
2013-03-05 12:05:00,71.9,57.3,30.10,East,84,15.0,17.0,60,0.00,,,0.00,VWS V14.01,2013-03-05 22:05:00,
2013-03-05 12:10:00,71.5,58.3,30.09,SE,124,14.0,14.0,63,0.00,,,0.00,VWS V14.01,2013-03-05 22:10:00,
2013-03-05 12:15:00,71.6,58.3,30.09,ESE,123,15.0,20.0,63,0.00,,,0.00,VWS V14.01,2013-03-05 22:15:00,
2013-03-05 12:20:00,71.3,58.1,30.09,NE,56,8.0,11.0,63,0.00,,,0.00,VWS V14.01,2013-03-05 22:20:00,
2013-03-05 12:25:00,70.8,58.9,30.08,ESE,111,14.0,14.0,66,0.00,,,0.00,VWS V14.01,2013-03-05 22:25:00,
2013-03-05 12:30:00,70.6,58.7,30.09,East,81,10.0,14.0,66,0.00,,,0.00,VWS V14.01,2013-03-05 22:30:00,
2013-03-05 12:35:00,70.9,59.8,30.08,ENE,65,9.0,12.0,68,0.00,,,0.00,VWS V14.01,2013-03-05 22:35:00,
2013-03-05 12:40:00,70.7,59.2,30.08,ESE,106,9.0,9.0,67,0.00,,,0.00,VWS V14.01,2013-03-05 22:40:00,
2013-03-05 12:45:00,70.9,59.8,30.08,ENE,59,5.0,12.0,68,0.00,,,0.00,VWS V14.01,2013-03-05 22:45:00,
2013-03-05 12:50:00,70.4,58.9,30.08,NE,41,15.0,15.0,67,0.00,,,0.00,VWS V14.01,2013-03-05 22:50:00,
2013-03-05 12:55:00,70.0,59.0,30.08,NE,39,11.0,11.0,68,0.00,,,0.00,VWS V14.01,2013-03-05 22:55:00,
2013-03-05 13:00:00,70.1,59.9,30.07,NE,41,4.0,4.0,70,0.00,,,0.00,VWS V14.01,2013-03-05 23:00:00,
2013-03-05 13:05:00,70.2,60.0,30.07,ENE,61,11.0,11.0,70,0.00,,,0.00,VWS V14.01,2013-03-05 23:05:00,
2013-03-05 13:10:00,70.1,60.3,30.07,NE,42,13.0,13.0,71,0.00,,,0.00,VWS V14.01,2013-03-05 23:10:00,
2013-03-05 13:15:00,69.9,60.5,30.07,ENE,67,9.0,14.0,72,0.00,,,0.00,VWS V14.01,2013-03-05 23:15:00,
2013-03-05 13:20:00,70.0,60.2,30.07,North,11,18.0,18.0,71,0.00,,,0.00,VWS V14.01,2013-03-05 23:20:00,
2013-03-05 13:26:00,70.0,60.6,30.07,NE,47,18.0,18.0,72,0.00,,,0.00,VWS V14.01,2013-03-05 23:26:00,
2013-03-05 13:31:00,69.8,60.4,30.07,ENE,60,9.0,9.0,72,0.00,,,0.00,VWS V14.01,2013-03-05 23:31:00,
2013-03-05 13:36:00,69.7,61.0,30.06,ENE,77,11.0,12.0,74,0.00,,,0.00,VWS V14.01,2013-03-05 23:36:00,
2013-03-05 13:41:00,69.4,61.1,30.06,NE,49,4.0,6.0,75,0.00,,,0.00,VWS V14.01,2013-03-05 23:41:00,
2013-03-05 13:46:00,69.5,61.6,30.06,East,90,7.0,11.0,76,0.00,,,0.00,VWS V14.01,2013-03-05 23:46:00,
2013-03-05 13:51:00,69.6,61.7,30.06,ENE,73,7.0,12.0,76,0.00,,,0.00,VWS V14.01,2013-03-05 23:51:00,
2013-03-05 13:56:00,69.5,62.0,30.06,ENE,73,15.0,15.0,77,0.00,,,0.00,VWS V14.01,2013-03-05 23:56:00,
2013-03-05 14:01:00,69.4,62.2,30.05,ENE,57,10.0,13.0,78,0.00,,,0.00,VWS V14.01,2013-03-06 00:01:00,
2013-03-05 14:06:00,69.4,62.2,30.05,ESE,103,17.0,18.0,78,0.00,,,0.00,VWS V14.01,2013-03-06 00:06:00,
2013-03-05 14:11:00,69.2,61.7,30.05,ENE,78,14.0,16.0,77,0.00,,,0.00,VWS V14.01,2013-03-06 00:11:00,
2013-03-05 14:16:00,69.3,62.2,30.05,East,95,14.0,14.0,78,0.00,,,0.00,VWS V14.01,2013-03-06 00:16:00,
2013-03-05 14:21:00,69.1,61.6,30.05,ENE,70,8.0,17.0,77,0.00,,,0.00,VWS V14.01,2013-03-06 00:21:00,
2013-03-05 14:27:00,69.2,61.7,30.04,ENE,57,11.0,14.0,77,0.00,,,0.00,VWS V14.01,2013-03-06 00:27:00,
2013-03-05 14:31:00,69.2,61.3,30.04,ESE,112,16.0,16.0,76,0.00,,,0.00,VWS V14.01,2013-03-06 00:31:00,
2013-03-05 14:37:00,69.0,61.5,30.04,East,101,12.0,12.0,77,0.00,,,0.00,VWS V14.01,2013-03-06 00:37:00,
2013-03-05 14:42:00,69.0,61.1,30.05,East,83,7.0,9.0,76,0.00,,,0.00,VWS V14.01,2013-03-06 00:42:00,
2013-03-05 14:47:00,68.8,60.9,30.04,NE,54,15.0,20.0,76,0.00,,,0.00,VWS V14.01,2013-03-06 00:47:00,
2013-03-05 14:52:00,69.0,61.5,30.05,ENE,65,11.0,11.0,77,0.00,,,0.00,VWS V14.01,2013-03-06 00:52:00,
2013-03-05 14:57:00,69.2,61.3,30.05,East,96,12.0,12.0,76,0.00,,,0.00,VWS V14.01,2013-03-06 00:57:00,
2013-03-05 15:02:00,68.9,61.4,30.05,East,88,11.0,13.0,77,0.00,,,0.00,VWS V14.01,2013-03-06 01:02:00,
2013-03-05 15:07:00,68.8,61.3,30.05,East,94,14.0,14.0,77,0.00,,,0.00,VWS V14.01,2013-03-06 01:07:00,
2013-03-05 15:12:00,68.6,61.1,30.05,ENE,59,11.0,11.0,77,0.00,,,0.00,VWS V14.01,2013-03-06 01:12:00,
2013-03-05 15:17:00,68.6,61.5,30.05,NNE,29,9.0,11.0,78,0.00,,,0.00,VWS V14.01,2013-03-06 01:17:00,
2013-03-05 15:22:00,68.6,61.1,30.05,East,87,13.0,13.0,77,0.00,,,0.00,VWS V14.01,2013-03-06 01:22:00,
2013-03-05 15:27:00,68.6,61.5,30.05,East,95,12.0,15.0,78,0.00,,,0.00,VWS V14.01,2013-03-06 01:27:00,
2013-03-05 15:32:00,68.6,61.5,30.05,NE,54,6.0,8.0,78,0.00,,,0.00,VWS V14.01,2013-03-06 01:32:00,
2013-03-05 15:38:00,68.5,61.7,30.05,East,101,11.0,12.0,79,0.00,,,0.00,VWS V14.01,2013-03-06 01:38:00,
2013-03-05 15:43:00,68.5,62.1,30.05,ENE,73,9.0,9.0,80,0.00,,,0.00,VWS V14.01,2013-03-06 01:43:00,
2013-03-05 15:48:00,68.5,61.7,30.05,ENE,71,7.0,7.0,79,0.00,,,0.00,VWS V14.01,2013-03-06 01:48:00,
2013-03-05 15:53:00,68.8,61.7,30.05,ENE,63,15.0,16.0,78,0.00,,,0.00,VWS V14.01,2013-03-06 01:53:00,
2013-03-05 15:58:00,68.7,61.2,30.04,East,99,14.0,14.0,77,0.00,,,0.00,VWS V14.01,2013-03-06 01:58:00,
2013-03-05 16:03:00,68.6,61.1,30.04,ESE,103,10.0,15.0,77,0.00,,,0.00,VWS V14.01,2013-03-06 02:03:00,
2013-03-05 16:08:00,68.6,61.5,30.05,ESE,103,8.0,9.0,78,0.00,,,0.00,VWS V14.01,2013-03-06 02:08:00,
2013-03-05 16:13:00,68.5,61.4,30.05,East,97,14.0,14.0,78,0.00,,,0.00,VWS V14.01,2013-03-06 02:13:00,
2013-03-05 16:18:00,68.4,61.6,30.04,ENE,68,8.0,11.0,79,0.00,,,0.00,VWS V14.01,2013-03-06 02:18:00,
2013-03-05 16:23:00,68.2,61.5,30.05,East,96,9.0,10.0,79,0.00,,,0.00,VWS V14.01,2013-03-06 02:23:00,
2013-03-05 16:28:00,68.2,61.8,30.05,East,90,6.0,10.0,80,0.00,,,0.00,VWS V14.01,2013-03-06 02:28:00,
2013-03-05 16:33:00,68.1,61.7,30.05,East,86,9.0,9.0,80,0.00,,,0.00,VWS V14.01,2013-03-06 02:33:00,
2013-03-05 16:38:00,68.2,62.2,30.05,ENE,64,13.0,15.0,81,0.00,,,0.00,VWS V14.01,2013-03-06 02:38:00,
2013-03-05 16:43:00,68.2,62.2,30.05,ENE,61,8.0,8.0,81,0.00,,,0.00,VWS V14.01,2013-03-06 02:43:00,
2013-03-05 16:49:00,68.1,62.1,30.05,ESE,106,5.0,6.0,81,0.00,,,0.00,VWS V14.01,2013-03-06 02:49:00,
2013-03-05 16:54:00,68.1,62.1,30.06,NE,54,8.0,12.0,81,0.00,,,0.00,VWS V14.01,2013-03-06 02:54:00,
2013-03-05 16:59:00,68.0,62.3,30.06,ENE,64,8.0,14.0,82,0.00,,,0.00,VWS V14.01,2013-03-06 02:59:00,
2013-03-05 17:04:00,67.9,61.9,30.06,East,101,8.0,11.0,81,0.00,,,0.00,VWS V14.01,2013-03-06 03:04:00,
2013-03-05 17:09:00,68.0,62.3,30.06,ESE,109,6.0,6.0,82,0.00,,,0.00,VWS V14.01,2013-03-06 03:09:00,
2013-03-05 17:14:00,68.0,62.0,30.06,East,90,5.0,13.0,81,0.00,,,0.00,VWS V14.01,2013-03-06 03:14:00,
2013-03-05 17:19:00,68.0,62.3,30.06,East,93,6.0,10.0,82,0.00,,,0.00,VWS V14.01,2013-03-06 03:19:00,
2013-03-05 17:24:00,68.0,62.3,30.06,ENE,65,12.0,12.0,82,0.00,,,0.00,VWS V14.01,2013-03-06 03:24:00,
2013-03-05 17:29:00,68.0,62.3,30.07,East,92,10.0,10.0,82,0.00,,,0.00,VWS V14.01,2013-03-06 03:29:00,
2013-03-05 17:34:00,68.0,62.3,30.06,East,98,8.0,10.0,82,0.00,,,0.00,VWS V14.01,2013-03-06 03:34:00,
2013-03-05 17:39:00,68.0,62.0,30.07,East,80,11.0,12.0,81,0.00,,,0.00,VWS V14.01,2013-03-06 03:39:00,
2013-03-05 17:44:00,67.9,61.5,30.07,East,88,7.0,12.0,80,0.00,,,0.00,VWS V14.01,2013-03-06 03:44:00,
2013-03-05 17:49:00,68.0,62.0,30.07,ENE,59,13.0,13.0,81,0.00,,,0.00,VWS V14.01,2013-03-06 03:49:00,
2013-03-05 17:55:00,68.1,62.1,30.07,ENE,67,7.0,8.0,81,0.00,,,0.00,VWS V14.01,2013-03-06 03:55:00,
2013-03-05 18:00:00,68.1,62.1,30.07,East,87,10.0,11.0,81,0.00,,,0.00,VWS V14.01,2013-03-06 04:00:00,
2013-03-05 18:05:00,68.1,62.4,30.07,ESE,104,10.0,10.0,82,0.00,,,0.00,VWS V14.01,2013-03-06 04:05:00,
2013-03-05 18:10:00,68.1,62.4,30.07,ENE,71,12.0,12.0,82,0.00,,,0.00,VWS V14.01,2013-03-06 04:10:00,
2013-03-05 18:15:00,68.0,62.3,30.07,ESE,111,11.0,11.0,82,0.00,,,0.00,VWS V14.01,2013-03-06 04:15:00,
2013-03-05 18:20:00,67.9,61.9,30.08,East,99,12.0,12.0,81,0.00,,,0.00,VWS V14.01,2013-03-06 04:20:00,
2013-03-05 18:25:00,67.9,61.9,30.08,ESE,106,12.0,12.0,81,0.00,,,0.00,VWS V14.01,2013-03-06 04:25:00,
2013-03-05 18:30:00,67.9,61.9,30.08,East,80,5.0,8.0,81,0.00,,,0.00,VWS V14.01,2013-03-06 04:30:00,
2013-03-05 18:35:00,67.9,61.9,30.08,ENE,61,6.0,8.0,81,0.00,,,0.00,VWS V14.01,2013-03-06 04:35:00,
2013-03-05 18:40:00,67.9,61.9,30.08,NE,55,8.0,9.0,81,0.00,,,0.00,VWS V14.01,2013-03-06 04:40:00,
2013-03-05 18:45:00,67.9,61.9,30.08,ESE,103,13.0,13.0,81,0.00,,,0.00,VWS V14.01,2013-03-06 04:45:00,
2013-03-05 18:50:00,67.8,61.8,30.09,ENE,62,9.0,13.0,81,0.00,,,0.00,VWS V14.01,2013-03-06 04:50:00,
2013-03-05 18:55:00,67.8,61.4,30.09,East,98,11.0,11.0,80,0.00,,,0.00,VWS V14.01,2013-03-06 04:55:00,
2013-03-05 19:00:00,67.8,61.4,30.09,ENE,62,10.0,10.0,80,0.00,,,0.00,VWS V14.01,2013-03-06 05:00:00,
2013-03-05 19:01:00,67.8,61.4,30.09,ENE,59,9.0,11.0,80,0.00,,,0.00,VWS V14.01,2013-03-06 05:01:00,
2013-03-05 19:06:00,67.9,61.5,30.09,ENE,63,9.0,11.0,80,0.00,,,0.00,VWS V14.01,2013-03-06 05:06:00,
2013-03-05 19:11:00,67.9,61.5,30.10,NE,54,10.0,11.0,80,0.00,,,0.00,VWS V14.01,2013-03-06 05:11:00,
2013-03-05 19:16:00,67.9,61.5,30.10,East,83,11.0,11.0,80,0.00,,,0.00,VWS V14.01,2013-03-06 05:16:00,
2013-03-05 19:21:00,68.0,62.0,30.10,NE,55,7.0,8.0,81,0.00,,,0.00,VWS V14.01,2013-03-06 05:21:00,
2013-03-05 19:26:00,67.9,61.9,30.10,ENE,66,10.0,12.0,81,0.00,,,0.00,VWS V14.01,2013-03-06 05:26:00,
2013-03-05 19:31:00,67.9,61.9,30.10,ENE,63,7.0,8.0,81,0.00,,,0.00,VWS V14.01,2013-03-06 05:31:00,
2013-03-05 19:36:00,67.9,61.9,30.10,NE,50,9.0,9.0,81,0.00,,,0.00,VWS V14.01,2013-03-06 05:36:00,
2013-03-05 19:41:00,67.9,62.2,30.11,ENE,73,10.0,10.0,82,0.00,,,0.00,VWS V14.01,2013-03-06 05:41:00,
2013-03-05 19:46:00,67.9,62.2,30.10,NE,34,7.0,7.0,82,0.00,,,0.00,VWS V14.01,2013-03-06 05:46:00,
2013-03-05 19:51:00,67.8,61.8,30.11,NNE,15,8.0,9.0,81,0.00,,,0.00,VWS V14.01,2013-03-06 05:51:00,
2013-03-05 19:56:00,67.9,61.9,30.11,ENE,66,5.0,5.0,81,0.00,,,0.00,VWS V14.01,2013-03-06 05:56:00,
2013-03-05 20:01:00,67.8,62.1,30.11,NNE,19,10.0,11.0,82,0.00,,,0.00,VWS V14.01,2013-03-06 06:01:00,
2013-03-05 20:06:00,67.7,62.0,30.11,NNE,13,6.0,8.0,82,0.00,,,0.00,VWS V14.01,2013-03-06 06:06:00,
2013-03-05 20:11:00,67.7,62.0,30.11,NE,52,5.0,5.0,82,0.00,,,0.00,VWS V14.01,2013-03-06 06:11:00,
2013-03-05 20:16:00,67.7,61.7,30.12,NE,52,5.0,6.0,81,0.00,,,0.00,VWS V14.01,2013-03-06 06:16:00,
2013-03-05 20:22:00,67.6,61.6,30.12,NE,50,6.0,9.0,81,0.00,,,0.00,VWS V14.01,2013-03-06 06:22:00,
2013-03-05 20:27:00,67.6,61.9,30.12,NE,46,9.0,9.0,82,0.00,,,0.00,VWS V14.01,2013-03-06 06:27:00,
2013-03-05 20:32:00,67.6,61.9,30.12,NE,54,5.0,6.0,82,0.00,,,0.00,VWS V14.01,2013-03-06 06:32:00,
2013-03-05 20:37:00,67.5,62.2,30.12,NE,49,7.0,8.0,83,0.00,,,0.00,VWS V14.01,2013-03-06 06:37:00,
2013-03-05 20:42:00,67.3,62.3,30.12,East,100,7.0,7.0,84,0.00,,,0.00,VWS V14.01,2013-03-06 06:42:00,
2013-03-05 20:47:00,67.1,62.5,30.12,ENE,67,4.0,5.0,85,0.00,,,0.00,VWS V14.01,2013-03-06 06:47:00,
2013-03-05 20:52:00,67.0,62.3,30.12,East,87,2.0,5.0,85,0.00,,,0.00,VWS V14.01,2013-03-06 06:52:00,
2013-03-05 20:57:00,66.9,62.2,30.12,NE,39,6.0,9.0,85,0.00,,,0.00,VWS V14.01,2013-03-06 06:57:00,
2013-03-05 21:02:00,66.9,61.9,30.12,East,87,8.0,8.0,84,0.00,,,0.00,VWS V14.01,2013-03-06 07:02:00,
2013-03-05 21:07:00,66.9,61.6,30.12,East,97,5.0,7.0,83,0.00,,,0.00,VWS V14.01,2013-03-06 07:07:00,
2013-03-05 21:12:00,66.9,61.6,30.12,NE,37,5.0,5.0,83,0.00,,,0.00,VWS V14.01,2013-03-06 07:12:00,
2013-03-05 21:17:00,66.9,61.6,30.12,NNE,25,7.0,7.0,83,0.00,,,0.00,VWS V14.01,2013-03-06 07:17:00,
2013-03-05 21:22:00,67.0,61.7,30.12,NNE,31,6.0,8.0,83,0.00,,,0.00,VWS V14.01,2013-03-06 07:22:00,
2013-03-05 21:27:00,66.9,61.2,30.12,NNE,23,6.0,8.0,82,0.00,,,0.00,VWS V14.01,2013-03-06 07:27:00,
2013-03-05 21:32:00,67.0,61.3,30.13,NE,42,6.0,7.0,82,0.00,,,0.00,VWS V14.01,2013-03-06 07:32:00,
2013-03-05 21:37:00,67.1,61.1,30.13,NE,55,2.0,3.0,81,0.00,,,0.00,VWS V14.01,2013-03-06 07:37:00,
2013-03-05 21:42:00,67.0,61.0,30.13,NE,40,3.0,5.0,81,0.00,,,0.00,VWS V14.01,2013-03-06 07:42:00,
2013-03-05 21:47:00,67.0,61.0,30.12,NNE,25,3.0,4.0,81,0.00,,,0.00,VWS V14.01,2013-03-06 07:47:00,
2013-03-05 21:52:00,67.0,60.6,30.12,North,351,5.0,7.0,80,0.00,,,0.00,VWS V14.01,2013-03-06 07:52:00,
2013-03-05 21:57:00,67.0,60.6,30.12,NNW,334,6.0,8.0,80,0.00,,,0.00,VWS V14.01,2013-03-06 07:57:00,
2013-03-05 22:02:00,67.0,60.3,30.12,NNE,26,6.0,8.0,79,0.00,,,0.00,VWS V14.01,2013-03-06 08:02:00,
2013-03-05 22:07:00,67.1,60.4,30.12,North,349,9.0,12.0,79,0.00,,,0.00,VWS V14.01,2013-03-06 08:07:00,
2013-03-05 22:12:00,67.3,60.2,30.12,NNW,343,15.0,16.0,78,0.00,,,0.00,VWS V14.01,2013-03-06 08:12:00,
2013-03-05 22:18:00,67.5,60.4,30.12,North,352,6.0,8.0,78,0.00,,,0.00,VWS V14.01,2013-03-06 08:18:00,
2013-03-05 22:23:00,67.4,60.7,30.12,North,11,4.0,4.0,79,0.00,,,0.00,VWS V14.01,2013-03-06 08:23:00,
2013-03-05 22:28:00,67.3,60.6,30.12,NNE,19,9.0,9.0,79,0.00,,,0.00,VWS V14.01,2013-03-06 08:28:00,
2013-03-05 22:33:00,67.3,60.6,30.12,NNE,13,12.0,12.0,79,0.00,,,0.00,VWS V14.01,2013-03-06 08:33:00,
2013-03-05 22:38:00,67.3,60.9,30.12,NNE,22,7.0,7.0,80,0.00,,,0.00,VWS V14.01,2013-03-06 08:38:00,
2013-03-05 22:43:00,67.3,60.9,30.13,NE,35,5.0,9.0,80,0.00,,,0.00,VWS V14.01,2013-03-06 08:43:00,
2013-03-05 22:48:00,67.1,61.1,30.13,NNE,14,11.0,12.0,81,0.00,,,0.00,VWS V14.01,2013-03-06 08:48:00,
2013-03-05 22:53:00,67.1,61.1,30.12,North,7,8.0,9.0,81,0.00,,,0.00,VWS V14.01,2013-03-06 08:53:00,
2013-03-05 22:58:00,67.1,60.7,30.12,North,9,9.0,15.0,80,0.00,,,0.00,VWS V14.01,2013-03-06 08:58:00,
2013-03-05 23:03:00,67.2,60.8,30.12,NNE,20,6.0,6.0,80,0.00,,,0.00,VWS V14.01,2013-03-06 09:03:00,
2013-03-05 23:08:00,67.1,61.1,30.12,NNE,26,10.0,12.0,81,0.00,,,0.00,VWS V14.01,2013-03-06 09:08:00,
2013-03-05 23:13:00,67.0,61.3,30.12,NNE,19,9.0,9.0,82,0.00,,,0.00,VWS V14.01,2013-03-06 09:13:00,
2013-03-05 23:19:00,67.0,61.0,30.11,NNE,19,6.0,9.0,81,0.00,,,0.00,VWS V14.01,2013-03-06 09:19:00,
2013-03-05 23:24:00,67.0,61.0,30.11,NNE,25,6.0,9.0,81,0.00,,,0.00,VWS V14.01,2013-03-06 09:24:00,
2013-03-05 23:29:00,66.9,60.9,30.12,NNE,21,10.0,10.0,81,0.00,,,0.00,VWS V14.01,2013-03-06 09:29:00,
2013-03-05 23:34:00,67.1,60.7,30.12,North,360,10.0,10.0,80,0.00,,,0.00,VWS V14.01,2013-03-06 09:34:00,
2013-03-05 23:39:00,67.0,60.3,30.12,NNE,26,7.0,7.0,79,0.00,,,0.00,VWS V14.01,2013-03-06 09:39:00,
2013-03-05 23:44:00,67.1,60.7,30.12,NE,47,4.0,4.0,80,0.00,,,0.00,VWS V14.01,2013-03-06 09:44:00,
2013-03-05 23:49:00,67.0,61.3,30.12,ESE,102,8.0,8.0,82,0.00,,,0.00,VWS V14.01,2013-03-06 09:49:00,
2013-03-05 23:54:00,66.2,61.6,30.12,ENE,68,5.0,8.0,85,0.00,,,0.00,VWS V14.01,2013-03-06 09:54:00,
2013-03-05 23:59:00,65.7,61.7,30.12,NE,35,6.0,6.0,87,0.00,,,0.00,VWS V14.01,2013-03-06 09:59:00,